sensor_id;sensor_type;location;lat;lon;timestamp;pressure;altitude;pressure_sealevel;temperature;humidity
22755;BME280;11544;42.020;23.094;2022-10-28T00:00:53;98371.94;;;11.99;66.81
22755;BME280;11544;42.020;23.094;2022-10-28T00:03:20;98380.50;;;11.65;67.16
22755;BME280;11544;42.020;23.094;2022-10-28T00:05:46;98377.53;;;11.38;69.18
22755;BME280;11544;42.020;23.094;2022-10-28T00:08:12;98390.69;;;11.34;69.46
22755;BME280;11544;42.020;23.094;2022-10-28T00:10:38;98387.97;;;11.38;69.09
22755;BME280;11544;42.020;23.094;2022-10-28T00:13:04;98389.00;;;11.31;69.12
22755;BME280;11544;42.020;23.094;2022-10-28T00:15:30;98389.56;;;11.02;70.69
22755;BME280;11544;42.020;23.094;2022-10-28T00:17:57;98385.50;;;10.87;72.88
22755;BME280;11544;42.020;23.094;2022-10-28T00:20:23;98383.09;;;10.75;72.18
22755;BME280;11544;42.020;23.094;2022-10-28T00:22:49;98382.56;;;11.06;72.28
22755;BME280;11544;42.020;23.094;2022-10-28T00:25:15;98374.97;;;11.37;70.78
22755;BME280;11544;42.020;23.094;2022-10-28T00:27:41;98375.50;;;11.11;70.31
22755;BME280;11544;42.020;23.094;2022-10-28T00:30:17;98383.84;;;11.27;70.94
22755;BME280;11544;42.020;23.094;2022-10-28T00:36:55;98371.13;;;11.55;69.61
22755;BME280;11544;42.020;23.094;2022-10-28T00:39:25;98380.56;;;11.17;70.08
22755;BME280;11544;42.020;23.094;2022-10-28T00:41:54;98384.69;;;11.29;70.17
22755;BME280;11544;42.020;23.094;2022-10-28T00:45:26;98380.84;;;11.48;69.43
22755;BME280;11544;42.020;23.094;2022-10-28T00:47:59;98381.88;;;11.41;69.80
22755;BME280;11544;42.020;23.094;2022-10-28T00:50:45;98386.44;;;11.30;70.28
22755;BME280;11544;42.020;23.094;2022-10-28T00:53:20;98387.63;;;11.13;70.82
22755;BME280;11544;42.020;23.094;2022-10-28T00:55:47;98391.09;;;10.64;73.60
22755;BME280;11544;42.020;23.094;2022-10-28T00:58:15;98394.41;;;10.74;73.61
22755;BME280;11544;42.020;23.094;2022-10-28T01:00:42;98391.72;;;10.78;73.19
22755;BME280;11544;42.020;23.094;2022-10-28T01:03:07;98389.19;;;10.75;73.50
22755;BME280;11544;42.020;23.094;2022-10-28T01:05:36;98386.38;;;10.33;75.00
22755;BME280;11544;42.020;23.094;2022-10-28T01:08:06;98398.00;;;10.09;75.97
22755;BME280;11544;42.020;23.094;2022-10-28T01:16:14;98391.91;;;10.12;76.72
22755;BME280;11544;42.020;23.094;2022-10-28T01:30:30;98389.22;;;10.16;77.59
22755;BME280;11544;42.020;23.094;2022-10-28T01:33:08;98393.13;;;9.88;77.92
22755;BME280;11544;42.020;23.094;2022-10-28T01:41:18;98394.06;;;10.41;75.18
22755;BME280;11544;42.020;23.094;2022-10-28T01:44:16;98390.06;;;10.17;76.72
22755;BME280;11544;42.020;23.094;2022-10-28T01:47:08;98391.78;;;10.18;76.36
22755;BME280;11544;42.020;23.094;2022-10-28T01:49:50;98396.59;;;10.46;75.63
22755;BME280;11544;42.020;23.094;2022-10-28T01:52:28;98394.00;;;10.47;75.23
22755;BME280;11544;42.020;23.094;2022-10-28T01:55:02;98394.38;;;10.21;75.05
22755;BME280;11544;42.020;23.094;2022-10-28T01:57:32;98392.50;;;10.32;76.54
22755;BME280;11544;42.020;23.094;2022-10-28T02:00:11;98393.41;;;10.27;75.39
22755;BME280;11544;42.020;23.094;2022-10-28T02:02:40;98395.91;;;10.36;75.66
22755;BME280;11544;42.020;23.094;2022-10-28T02:08:00;98392.81;;;10.09;75.99
22755;BME280;11544;42.020;23.094;2022-10-28T02:10:34;98390.75;;;10.33;75.12
22755;BME280;11544;42.020;23.094;2022-10-28T02:13:13;98392.81;;;10.08;75.71
22755;BME280;11544;42.020;23.094;2022-10-28T02:15:50;98395.41;;;10.08;76.24
22755;BME280;11544;42.020;23.094;2022-10-28T02:18:34;98394.50;;;10.13;76.93
22755;BME280;11544;42.020;23.094;2022-10-28T02:21:24;98395.72;;;9.88;77.05
22755;BME280;11544;42.020;23.094;2022-10-28T02:24:03;98400.16;;;9.80;77.81
22755;BME280;11544;42.020;23.094;2022-10-28T02:29:52;98404.50;;;9.79;79.08
22755;BME280;11544;42.020;23.094;2022-10-28T02:32:23;98398.91;;;10.07;79.03
22755;BME280;11544;42.020;23.094;2022-10-28T02:34:54;98400.31;;;10.32;77.26
22755;BME280;11544;42.020;23.094;2022-10-28T02:37:24;98397.97;;;10.12;77.40
22755;BME280;11544;42.020;23.094;2022-10-28T02:39:55;98407.59;;;10.06;77.95
22755;BME280;11544;42.020;23.094;2022-10-28T02:42:26;98400.13;;;9.83;78.79
22755;BME280;11544;42.020;23.094;2022-10-28T02:44:58;98404.69;;;10.29;77.06
22755;BME280;11544;42.020;23.094;2022-10-28T02:47:27;98410.84;;;10.22;76.83
22755;BME280;11544;42.020;23.094;2022-10-28T02:49:59;98413.66;;;10.09;77.04
22755;BME280;11544;42.020;23.094;2022-10-28T02:52:30;98416.19;;;10.14;77.12
22755;BME280;11544;42.020;23.094;2022-10-28T02:55:12;98415.16;;;10.26;76.96
22755;BME280;11544;42.020;23.094;2022-10-28T02:57:42;98423.81;;;9.63;79.59
22755;BME280;11544;42.020;23.094;2022-10-28T03:00:18;98428.31;;;9.50;81.17
22755;BME280;11544;42.020;23.094;2022-10-28T03:02:45;98427.56;;;9.37;81.86
22755;BME280;11544;42.020;23.094;2022-10-28T03:05:11;98432.94;;;9.23;83.29
22755;BME280;11544;42.020;23.094;2022-10-28T03:07:38;98421.88;;;9.77;81.20
22755;BME280;11544;42.020;23.094;2022-10-28T03:10:06;98435.66;;;9.13;82.99
22755;BME280;11544;42.020;23.094;2022-10-28T03:12:50;98434.53;;;9.38;82.48
22755;BME280;11544;42.020;23.094;2022-10-28T03:15:16;98431.16;;;9.27;82.67
22755;BME280;11544;42.020;23.094;2022-10-28T03:17:42;98436.47;;;9.19;83.02
22755;BME280;11544;42.020;23.094;2022-10-28T03:20:40;98440.59;;;9.37;82.79
22755;BME280;11544;42.020;23.094;2022-10-28T03:23:05;98437.31;;;9.20;82.27
22755;BME280;11544;42.020;23.094;2022-10-28T03:25:34;98440.81;;;9.16;84.10
22755;BME280;11544;42.020;23.094;2022-10-28T03:34:30;98434.00;;;9.04;82.63
22755;BME280;11544;42.020;23.094;2022-10-28T03:37:17;98431.41;;;9.80;81.09
22755;BME280;11544;42.020;23.094;2022-10-28T03:42:18;98440.81;;;9.14;81.98
22755;BME280;11544;42.020;23.094;2022-10-28T03:44:56;98438.72;;;9.48;81.38
22755;BME280;11544;42.020;23.094;2022-10-28T03:47:24;98443.47;;;9.13;82.04
22755;BME280;11544;42.020;23.094;2022-10-28T03:49:53;98445.34;;;8.97;83.45
22755;BME280;11544;42.020;23.094;2022-10-28T03:52:19;98442.66;;;9.06;83.74
22755;BME280;11544;42.020;23.094;2022-10-28T03:54:45;98445.03;;;9.29;83.92
22755;BME280;11544;42.020;23.094;2022-10-28T03:57:11;98438.63;;;9.59;82.50
22755;BME280;11544;42.020;23.094;2022-10-28T03:59:37;98435.97;;;9.61;80.92
22755;BME280;11544;42.020;23.094;2022-10-28T04:02:02;98437.50;;;9.01;83.19
22755;BME280;11544;42.020;23.094;2022-10-28T04:04:36;98441.19;;;8.76;84.23
22755;BME280;11544;42.020;23.094;2022-10-28T04:07:02;98435.69;;;9.06;83.32
22755;BME280;11544;42.020;23.094;2022-10-28T04:09:43;98435.81;;;8.94;83.40
22755;BME280;11544;42.020;23.094;2022-10-28T04:16:18;98439.31;;;8.92;82.60
22755;BME280;11544;42.020;23.094;2022-10-28T04:18:47;98445.00;;;9.30;82.89
22755;BME280;11544;42.020;23.094;2022-10-28T04:21:12;98434.53;;;9.38;82.97
22755;BME280;11544;42.020;23.094;2022-10-28T04:27:03;98440.53;;;8.49;85.99
22755;BME280;11544;42.020;23.094;2022-10-28T04:29:30;98451.91;;;8.30;87.42
22755;BME280;11544;42.020;23.094;2022-10-28T04:31:56;98451.88;;;8.33;87.57
22755;BME280;11544;42.020;23.094;2022-10-28T04:34:22;98442.81;;;8.89;86.63
22755;BME280;11544;42.020;23.094;2022-10-28T04:36:48;98446.31;;;8.85;86.80
22755;BME280;11544;42.020;23.094;2022-10-28T04:39:21;98447.34;;;8.67;86.26
22755;BME280;11544;42.020;23.094;2022-10-28T04:41:47;98454.13;;;8.83;85.26
22755;BME280;11544;42.020;23.094;2022-10-28T04:44:13;98443.16;;;8.46;87.35
22755;BME280;11544;42.020;23.094;2022-10-28T04:46:39;98451.53;;;8.82;87.52
22755;BME280;11544;42.020;23.094;2022-10-28T04:49:25;98442.53;;;9.18;84.70
22755;BME280;11544;42.020;23.094;2022-10-28T04:51:51;98448.09;;;8.81;84.95
22755;BME280;11544;42.020;23.094;2022-10-28T04:54:16;98452.44;;;8.78;86.01
22755;BME280;11544;42.020;23.094;2022-10-28T04:56:42;98447.94;;;8.95;85.62
22755;BME280;11544;42.020;23.094;2022-10-28T04:59:08;98449.88;;;8.73;85.58
22755;BME280;11544;42.020;23.094;2022-10-28T05:01:35;98449.56;;;9.07;86.72
22755;BME280;11544;42.020;23.094;2022-10-28T05:04:03;98455.69;;;9.00;89.05
22755;BME280;11544;42.020;23.094;2022-10-28T05:06:29;98461.38;;;8.37;88.48
22755;BME280;11544;42.020;23.094;2022-10-28T05:08:57;98460.22;;;8.82;88.00
22755;BME280;11544;42.020;23.094;2022-10-28T05:11:23;98454.38;;;8.51;88.30
22755;BME280;11544;42.020;23.094;2022-10-28T05:13:48;98454.22;;;8.73;88.69
22755;BME280;11544;42.020;23.094;2022-10-28T05:16:17;98466.78;;;9.20;90.92
22755;BME280;11544;42.020;23.094;2022-10-28T05:18:43;98469.34;;;9.25;95.81
22755;BME280;11544;42.020;23.094;2022-10-28T05:21:08;98467.50;;;9.36;90.64
22755;BME280;11544;42.020;23.094;2022-10-28T05:23:34;98467.69;;;9.16;90.82
22755;BME280;11544;42.020;23.094;2022-10-28T05:26:03;98466.56;;;9.43;90.66
22755;BME280;11544;42.020;23.094;2022-10-28T05:28:29;98476.97;;;10.16;93.10
22755;BME280;11544;42.020;23.094;2022-10-28T05:30:55;98475.44;;;10.63;91.63
22755;BME280;11544;42.020;23.094;2022-10-28T05:33:20;98465.94;;;12.42;81.59
22755;BME280;11544;42.020;23.094;2022-10-28T05:35:52;98465.50;;;11.80;72.84
22755;BME280;11544;42.020;23.094;2022-10-28T05:38:18;98452.13;;;12.73;73.20
22755;BME280;11544;42.020;23.094;2022-10-28T05:40:48;98466.19;;;11.91;68.78
22755;BME280;11544;42.020;23.094;2022-10-28T05:43:19;98462.75;;;12.29;71.89
22755;BME280;11544;42.020;23.094;2022-10-28T05:45:55;98461.47;;;13.52;68.75
22755;BME280;11544;42.020;23.094;2022-10-28T05:48:22;98471.69;;;11.31;71.66
22755;BME280;11544;42.020;23.094;2022-10-28T05:50:48;98471.41;;;12.33;73.06
22755;BME280;11544;42.020;23.094;2022-10-28T05:53:14;98477.66;;;10.86;71.21
22755;BME280;11544;42.020;23.094;2022-10-28T05:55:43;98467.66;;;13.15;69.82
22755;BME280;11544;42.020;23.094;2022-10-28T05:58:28;98462.16;;;13.26;67.93
22755;BME280;11544;42.020;23.094;2022-10-28T06:00:56;98481.06;;;11.88;67.92
22755;BME280;11544;42.020;23.094;2022-10-28T06:03:25;98483.84;;;11.32;71.21
22755;BME280;11544;42.020;23.094;2022-10-28T06:05:51;98480.44;;;12.57;69.49
22755;BME280;11544;42.020;23.094;2022-10-28T06:08:17;98475.88;;;13.98;62.74
22755;BME280;11544;42.020;23.094;2022-10-28T06:10:53;98482.75;;;13.05;62.34
22755;BME280;11544;42.020;23.094;2022-10-28T06:13:19;98468.97;;;12.61;67.33
22755;BME280;11544;42.020;23.094;2022-10-28T06:15:55;98481.03;;;12.29;69.45
22755;BME280;11544;42.020;23.094;2022-10-28T06:18:22;98487.13;;;11.90;68.04
22755;BME280;11544;42.020;23.094;2022-10-28T06:20:58;98476.00;;;13.31;66.89
22755;BME280;11544;42.020;23.094;2022-10-28T06:23:25;98486.53;;;12.92;66.07
22755;BME280;11544;42.020;23.094;2022-10-28T06:25:59;98481.81;;;13.08;65.55
22755;BME280;11544;42.020;23.094;2022-10-28T06:28:25;98492.03;;;12.05;66.03
22755;BME280;11544;42.020;23.094;2022-10-28T06:30:59;98492.72;;;12.13;69.20
22755;BME280;11544;42.020;23.094;2022-10-28T06:33:28;98499.56;;;11.75;69.01
22755;BME280;11544;42.020;23.094;2022-10-28T06:35:57;98502.44;;;12.06;68.15
22755;BME280;11544;42.020;23.094;2022-10-28T06:38:24;98506.16;;;11.96;68.49
22755;BME280;11544;42.020;23.094;2022-10-28T06:40:49;98500.38;;;13.98;63.79
22755;BME280;11544;42.020;23.094;2022-10-28T06:43:15;98489.66;;;14.92;60.53
22755;BME280;11544;42.020;23.094;2022-10-28T06:45:41;98493.16;;;13.75;62.02
22755;BME280;11544;42.020;23.094;2022-10-28T06:48:07;98483.88;;;15.34;58.08
22755;BME280;11544;42.020;23.094;2022-10-28T06:50:34;98482.09;;;15.35;56.43
22755;BME280;11544;42.020;23.094;2022-10-28T06:53:03;98485.41;;;15.40;55.66
22755;BME280;11544;42.020;23.094;2022-10-28T06:55:29;98481.72;;;14.08;56.89
22755;BME280;11544;42.020;23.094;2022-10-28T06:58:02;98479.66;;;15.03;59.12
22755;BME280;11544;42.020;23.094;2022-10-28T07:00:29;98483.13;;;15.81;55.93
22755;BME280;11544;42.020;23.094;2022-10-28T07:03:01;98483.50;;;14.93;56.93
22755;BME280;11544;42.020;23.094;2022-10-28T07:05:27;98473.19;;;15.39;58.82
22755;BME280;11544;42.020;23.094;2022-10-28T07:07:53;98474.31;;;15.32;57.31
22755;BME280;11544;42.020;23.094;2022-10-28T07:10:19;98475.22;;;15.06;56.37
22755;BME280;11544;42.020;23.094;2022-10-28T07:12:44;98468.59;;;14.67;55.79
22755;BME280;11544;42.020;23.094;2022-10-28T07:15:15;98471.78;;;15.80;55.99
22755;BME280;11544;42.020;23.094;2022-10-28T07:17:41;98465.47;;;15.84;54.68
22755;BME280;11544;42.020;23.094;2022-10-28T07:20:27;98469.88;;;15.34;55.88
22755;BME280;11544;42.020;23.094;2022-10-28T07:23:00;98466.88;;;15.44;56.38
22755;BME280;11544;42.020;23.094;2022-10-28T07:25:52;98465.16;;;15.69;54.30
22755;BME280;11544;42.020;23.094;2022-10-28T07:28:22;98466.19;;;16.35;51.99
22755;BME280;11544;42.020;23.094;2022-10-28T07:30:49;98465.53;;;16.30;53.10
22755;BME280;11544;42.020;23.094;2022-10-28T07:33:15;98445.28;;;16.54;53.01
22755;BME280;11544;42.020;23.094;2022-10-28T07:35:40;98459.75;;;15.97;52.59
22755;BME280;11544;42.020;23.094;2022-10-28T07:38:07;98454.50;;;16.86;52.46
22755;BME280;11544;42.020;23.094;2022-10-28T07:40:33;98458.47;;;16.75;51.93
22755;BME280;11544;42.020;23.094;2022-10-28T07:42:58;98455.34;;;17.50;51.96
22755;BME280;11544;42.020;23.094;2022-10-28T07:45:24;98460.94;;;17.01;51.33
22755;BME280;11544;42.020;23.094;2022-10-28T07:47:50;98459.81;;;17.07;51.69
22755;BME280;11544;42.020;23.094;2022-10-28T07:50:18;98459.78;;;16.42;51.40
22755;BME280;11544;42.020;23.094;2022-10-28T07:52:44;98454.69;;;16.60;53.71
22755;BME280;11544;42.020;23.094;2022-10-28T07:55:11;98453.75;;;16.84;50.42
22755;BME280;11544;42.020;23.094;2022-10-28T07:57:37;98457.41;;;17.23;50.79
22755;BME280;11544;42.020;23.094;2022-10-28T08:00:04;98449.34;;;16.39;51.90
22755;BME280;11544;42.020;23.094;2022-10-28T08:02:36;98444.59;;;16.71;52.21
22755;BME280;11544;42.020;23.094;2022-10-28T08:05:02;98443.94;;;16.88;50.06
22755;BME280;11544;42.020;23.094;2022-10-28T08:07:28;98441.19;;;17.32;50.65
22755;BME280;11544;42.020;23.094;2022-10-28T08:09:53;98433.94;;;16.52;51.66
22755;BME280;11544;42.020;23.094;2022-10-28T08:12:36;98444.47;;;16.52;50.63
22755;BME280;11544;42.020;23.094;2022-10-28T08:15:03;98450.28;;;16.38;51.54
22755;BME280;11544;42.020;23.094;2022-10-28T08:17:29;98438.47;;;16.92;49.81
22755;BME280;11544;42.020;23.094;2022-10-28T08:19:54;98438.84;;;16.83;51.07
22755;BME280;11544;42.020;23.094;2022-10-28T08:22:20;98432.28;;;17.14;49.88
22755;BME280;11544;42.020;23.094;2022-10-28T08:24:45;98430.50;;;16.50;51.10
22755;BME280;11544;42.020;23.094;2022-10-28T08:27:11;98426.81;;;17.19;50.70
22755;BME280;11544;42.020;23.094;2022-10-28T08:29:37;98425.38;;;16.47;51.91
22755;BME280;11544;42.020;23.094;2022-10-28T08:32:08;98427.09;;;16.92;49.48
22755;BME280;11544;42.020;23.094;2022-10-28T08:34:37;98422.22;;;17.24;49.92
22755;BME280;11544;42.020;23.094;2022-10-28T08:37:03;98418.16;;;16.96;49.74
22755;BME280;11544;42.020;23.094;2022-10-28T08:39:29;98420.13;;;17.11;50.18
22755;BME280;11544;42.020;23.094;2022-10-28T08:50:23;98411.28;;;18.12;47.71
22755;BME280;11544;42.020;23.094;2022-10-28T08:53:04;98402.41;;;17.94;48.07
22755;BME280;11544;42.020;23.094;2022-10-28T08:55:44;98408.97;;;17.85;48.97
22755;BME280;11544;42.020;23.094;2022-10-28T08:58:15;98402.13;;;18.55;46.79
22755;BME280;11544;42.020;23.094;2022-10-28T09:00:46;98396.13;;;18.52;47.31
22755;BME280;11544;42.020;23.094;2022-10-28T09:03:22;98403.00;;;18.01;47.86
22755;BME280;11544;42.020;23.094;2022-10-28T09:05:56;98396.25;;;18.68;47.58
22755;BME280;11544;42.020;23.094;2022-10-28T09:08:26;98391.63;;;18.36;47.26
22755;BME280;11544;42.020;23.094;2022-10-28T09:24:51;98373.84;;;18.40;46.72
22755;BME280;11544;42.020;23.094;2022-10-28T09:32:47;98364.22;;;18.93;46.31
22755;BME280;11544;42.020;23.094;2022-10-28T09:35:19;98357.91;;;19.46;46.27
22755;BME280;11544;42.020;23.094;2022-10-28T09:38:19;98355.25;;;19.13;45.53
22755;BME280;11544;42.020;23.094;2022-10-28T09:40:58;98350.16;;;18.92;46.46
22755;BME280;11544;42.020;23.094;2022-10-28T09:43:32;98353.06;;;19.21;46.55
22755;BME280;11544;42.020;23.094;2022-10-28T09:46:13;98339.72;;;19.07;45.70
22755;BME280;11544;42.020;23.094;2022-10-28T09:48:46;98335.13;;;19.10;46.18
22755;BME280;11544;42.020;23.094;2022-10-28T09:53:57;98324.84;;;19.55;45.64
22755;BME280;11544;42.020;23.094;2022-10-28T09:56:30;98315.41;;;19.98;45.41
22755;BME280;11544;42.020;23.094;2022-10-28T09:59:02;98309.19;;;20.45;44.01
22755;BME280;11544;42.020;23.094;2022-10-28T10:01:38;98299.44;;;20.16;43.95
22755;BME280;11544;42.020;23.094;2022-10-28T10:04:24;98302.72;;;20.35;44.43
22755;BME280;11544;42.020;23.094;2022-10-28T10:07:03;98298.72;;;20.74;43.87
22755;BME280;11544;42.020;23.094;2022-10-28T10:09:31;98293.09;;;20.64;43.90
22755;BME280;11544;42.020;23.094;2022-10-28T10:12:13;98291.69;;;20.43;43.28
22755;BME280;11544;42.020;23.094;2022-10-28T10:14:45;98290.25;;;20.37;44.69
22755;BME280;11544;42.020;23.094;2022-10-28T10:17:26;98294.06;;;20.47;44.04
22755;BME280;11544;42.020;23.094;2022-10-28T10:22:34;98284.78;;;20.70;43.71
22755;BME280;11544;42.020;23.094;2022-10-28T10:25:02;98288.25;;;20.11;43.78
22755;BME280;11544;42.020;23.094;2022-10-28T10:27:29;98280.16;;;20.44;43.57
22755;BME280;11544;42.020;23.094;2022-10-28T10:29:56;98270.78;;;20.68;43.60
22755;BME280;11544;42.020;23.094;2022-10-28T10:32:26;98269.50;;;20.90;43.21
22755;BME280;11544;42.020;23.094;2022-10-28T10:35:00;98265.72;;;21.37;42.53
22755;BME280;11544;42.020;23.094;2022-10-28T10:37:29;98256.25;;;21.04;43.15
22755;BME280;11544;42.020;23.094;2022-10-28T10:40:04;98262.28;;;20.78;42.91
22755;BME280;11544;42.020;23.094;2022-10-28T10:42:49;98264.28;;;20.74;42.81
22755;BME280;11544;42.020;23.094;2022-10-28T10:48:06;98245.56;;;21.06;43.40
22755;BME280;11544;42.020;23.094;2022-10-28T10:50:34;98243.19;;;21.01;42.11
22755;BME280;11544;42.020;23.094;2022-10-28T10:53:03;98241.84;;;20.94;42.08
22755;BME280;11544;42.020;23.094;2022-10-28T10:55:36;98235.50;;;20.82;42.13
22755;BME280;11544;42.020;23.094;2022-10-28T10:58:04;98230.41;;;20.79;42.55
22755;BME280;11544;42.020;23.094;2022-10-28T11:00:44;98224.53;;;21.03;42.90
22755;BME280;11544;42.020;23.094;2022-10-28T11:03:17;98223.88;;;20.99;43.04
22755;BME280;11544;42.020;23.094;2022-10-28T11:05:48;98225.47;;;21.02;42.56
22755;BME280;11544;42.020;23.094;2022-10-28T11:08:26;98216.03;;;20.98;42.40
22755;BME280;11544;42.020;23.094;2022-10-28T11:11:10;98218.69;;;20.98;42.46
22755;BME280;11544;42.020;23.094;2022-10-28T11:13:40;98211.75;;;20.81;41.89
22755;BME280;11544;42.020;23.094;2022-10-28T11:18:44;98202.94;;;21.09;42.63
22755;BME280;11544;42.020;23.094;2022-10-28T11:21:36;98199.91;;;21.15;41.94
22755;BME280;11544;42.020;23.094;2022-10-28T11:24:18;98205.72;;;21.07;42.94
22755;BME280;11544;42.020;23.094;2022-10-28T11:29:49;98189.13;;;20.75;42.02
22755;BME280;11544;42.020;23.094;2022-10-28T11:38:17;98181.94;;;20.77;41.91
22755;BME280;11544;42.020;23.094;2022-10-28T11:43:57;98169.31;;;21.09;41.45
22755;BME280;11544;42.020;23.094;2022-10-28T11:46:47;98169.97;;;21.27;40.91
22755;BME280;11544;42.020;23.094;2022-10-28T11:55:20;98152.53;;;21.23;41.55
22755;BME280;11544;42.020;23.094;2022-10-28T11:58:15;98151.91;;;21.20;40.96
22755;BME280;11544;42.020;23.094;2022-10-28T12:07:00;98138.75;;;21.18;40.21
22755;BME280;11544;42.020;23.094;2022-10-28T12:09:56;98137.34;;;21.54;39.97
22755;BME280;11544;42.020;23.094;2022-10-28T12:17:36;98117.34;;;21.75;39.20
22755;BME280;11544;42.020;23.094;2022-10-28T12:23:00;98110.81;;;21.54;40.39
22755;BME280;11544;42.020;23.094;2022-10-28T12:25:33;98115.19;;;21.68;39.26
22755;BME280;11544;42.020;23.094;2022-10-28T12:28:04;98109.34;;;21.90;39.31
22755;BME280;11544;42.020;23.094;2022-10-28T12:30:34;98108.53;;;21.75;40.26
22755;BME280;11544;42.020;23.094;2022-10-28T12:33:21;98099.28;;;21.68;40.44
22755;BME280;11544;42.020;23.094;2022-10-28T12:36:09;98105.25;;;21.71;40.05
22755;BME280;11544;42.020;23.094;2022-10-28T12:38:52;98094.25;;;21.50;39.97
22755;BME280;11544;42.020;23.094;2022-10-28T12:44:25;98095.13;;;21.64;40.36
22755;BME280;11544;42.020;23.094;2022-10-28T12:52:01;98088.03;;;21.64;40.58
22755;BME280;11544;42.020;23.094;2022-10-28T12:54:44;98087.84;;;21.67;40.21
22755;BME280;11544;42.020;23.094;2022-10-28T12:57:15;98084.63;;;21.62;40.13
22755;BME280;11544;42.020;23.094;2022-10-28T12:59:52;98076.13;;;21.57;39.95
22755;BME280;11544;42.020;23.094;2022-10-28T13:02:36;98073.38;;;21.59;40.17
22755;BME280;11544;42.020;23.094;2022-10-28T13:05:06;98079.94;;;21.53;39.07
22755;BME280;11544;42.020;23.094;2022-10-28T13:10:28;98078.09;;;21.41;38.38
22755;BME280;11544;42.020;23.094;2022-10-28T13:15:40;98067.59;;;21.79;36.68
22755;BME280;11544;42.020;23.094;2022-10-28T13:26:53;98064.88;;;21.26;37.75
22755;BME280;11544;42.020;23.094;2022-10-28T13:29:25;98060.75;;;21.35;37.85
22755;BME280;11544;42.020;23.094;2022-10-28T13:31:52;98060.38;;;21.41;38.21
22755;BME280;11544;42.020;23.094;2022-10-28T13:34:21;98058.09;;;21.35;38.37
22755;BME280;11544;42.020;23.094;2022-10-28T13:36:59;98058.66;;;21.40;37.35
22755;BME280;11544;42.020;23.094;2022-10-28T13:44:54;98047.44;;;21.22;37.65
22755;BME280;11544;42.020;23.094;2022-10-28T13:47:26;98047.28;;;21.11;37.94
22755;BME280;11544;42.020;23.094;2022-10-28T13:50:13;98046.00;;;21.04;38.33
22755;BME280;11544;42.020;23.094;2022-10-28T13:52:43;98051.09;;;21.07;37.49
22755;BME280;11544;42.020;23.094;2022-10-28T13:58:03;98050.63;;;21.42;36.21
22755;BME280;11544;42.020;23.094;2022-10-28T14:03:02;98046.34;;;21.39;35.70
22755;BME280;11544;42.020;23.094;2022-10-28T14:08:03;98051.19;;;21.05;37.55
22755;BME280;11544;42.020;23.094;2022-10-28T14:10:36;98041.09;;;21.25;37.19
22755;BME280;11544;42.020;23.094;2022-10-28T14:13:16;98040.84;;;21.15;37.61
22755;BME280;11544;42.020;23.094;2022-10-28T14:15:45;98039.56;;;21.08;38.19
22755;BME280;11544;42.020;23.094;2022-10-28T14:18:21;98030.88;;;21.19;37.31
22755;BME280;11544;42.020;23.094;2022-10-28T14:21:12;98041.19;;;20.96;38.31
22755;BME280;11544;42.020;23.094;2022-10-28T14:26:04;98042.25;;;20.93;38.26
22755;BME280;11544;42.020;23.094;2022-10-28T14:33:39;98034.38;;;20.65;39.30
22755;BME280;11544;42.020;23.094;2022-10-28T14:49:34;98032.84;;;20.61;39.24
22755;BME280;11544;42.020;23.094;2022-10-28T14:52:12;98038.78;;;20.36;39.71
22755;BME280;11544;42.020;23.094;2022-10-28T14:55:23;98038.97;;;20.33;40.04
22755;BME280;11544;42.020;23.094;2022-10-28T14:57:50;98038.88;;;20.48;38.93
22755;BME280;11544;42.020;23.094;2022-10-28T15:00:22;98035.28;;;20.35;40.75
22755;BME280;11544;42.020;23.094;2022-10-28T15:02:50;98044.00;;;20.23;39.99
22755;BME280;11544;42.020;23.094;2022-10-28T15:05:19;98040.78;;;20.18;40.11
22755;BME280;11544;42.020;23.094;2022-10-28T15:07:46;98038.59;;;20.24;39.89
22755;BME280;11544;42.020;23.094;2022-10-28T15:10:21;98042.66;;;20.16;40.14
22755;BME280;11544;42.020;23.094;2022-10-28T15:12:53;98033.41;;;19.94;40.25
22755;BME280;11544;42.020;23.094;2022-10-28T15:15:30;98041.59;;;19.59;40.57
22755;BME280;11544;42.020;23.094;2022-10-28T15:17:59;98045.34;;;19.71;42.00
22755;BME280;11544;42.020;23.094;2022-10-28T15:20:31;98044.63;;;19.67;42.35
22755;BME280;11544;42.020;23.094;2022-10-28T15:23:22;98044.09;;;19.16;43.55
22755;BME280;11544;42.020;23.094;2022-10-28T15:26:16;98047.75;;;19.14;43.75
22755;BME280;11544;42.020;23.094;2022-10-28T15:28:43;98053.56;;;19.04;44.88
22755;BME280;11544;42.020;23.094;2022-10-28T15:31:09;98054.09;;;18.95;46.24
22755;BME280;11544;42.020;23.094;2022-10-28T15:33:40;98053.53;;;18.73;46.17
22755;BME280;11544;42.020;23.094;2022-10-28T15:36:36;98053.59;;;18.55;45.64
22755;BME280;11544;42.020;23.094;2022-10-28T15:39:23;98054.91;;;18.64;45.84
22755;BME280;11544;42.020;23.094;2022-10-28T15:41:50;98064.25;;;18.54;45.90
22755;BME280;11544;42.020;23.094;2022-10-28T15:46:54;98060.72;;;18.37;46.43
22755;BME280;11544;42.020;23.094;2022-10-28T15:49:42;98060.34;;;18.45;44.81
22755;BME280;11544;42.020;23.094;2022-10-28T15:52:34;98057.53;;;18.15;44.95
22755;BME280;11544;42.020;23.094;2022-10-28T15:59:21;98072.75;;;17.58;45.20
22755;BME280;11544;42.020;23.094;2022-10-28T16:01:48;98072.38;;;17.65;45.77
22755;BME280;11544;42.020;23.094;2022-10-28T16:04:41;98072.88;;;17.37;46.26
22755;BME280;11544;42.020;23.094;2022-10-28T16:07:19;98075.19;;;17.43;45.95
22755;BME280;11544;42.020;23.094;2022-10-28T16:09:56;98071.63;;;17.27;46.50
22755;BME280;11544;42.020;23.094;2022-10-28T16:12:24;98080.75;;;17.20;46.56
22755;BME280;11544;42.020;23.094;2022-10-28T16:17:32;98084.97;;;17.05;47.21
22755;BME280;11544;42.020;23.094;2022-10-28T16:20:12;98094.88;;;16.81;47.49
22755;BME280;11544;42.020;23.094;2022-10-28T16:22:49;98090.88;;;16.91;47.45
22755;BME280;11544;42.020;23.094;2022-10-28T16:25:20;98095.56;;;16.65;47.77